Terminal Aerodrome Forecast
Issued by NWS Wilmington, OH

Current Version | Previous Version | Graphics & Text | Print | Product List | Glossary On
Versions: 1 2 3 4 5 6 7 8 9 10 11 12 13 14 15 16 17 18 19 20 21 22
000
FTUS41 KILN 300900 AAA
TAFDAY
TAF AMD
KDAY 300904Z 3009/0106 23004KT 1SM BR BKN003 OVC012
     FM301400 24010KT P6SM BKN015
     FM301600 25012KT P6SM VCSH BKN035
     FM301800 25012G22KT P6SM VCTS BKN040CB
      TEMPO 3018/3022 3SM TSRA BR OVC020CB
     FM010000 26007KT P6SM SCT050 SCT100=

USA.gov is the U.S. government's official web portal to all federal, state and local government web resources and services.